Time;durP1;ratioP1;P1;durP2;ratioP2;P2;SDS_P1;SDS_P2;PMS_P1;PMS_P2;Temp;Humidity;BMP_temperature;BMP_pressure;BME280_temperature;BME280_humidity;BME280_pressure;Samples;Min_cycle;Max_cycle;Signal;HPM_P1;HPM_P2
2022/08/14 00:01:09;;;;;;;1.35;1.08;;;25.00;98.70;;;;;;5066917;28;20197;-43
2022/08/14 00:03:37;;;;;;;3.72;1.00;;;25.00;98.70;;;;;;5072604;28;20761;-48
2022/08/14 00:06:05;;;;;;;1.00;1.00;;;25.00;98.80;;;;;;5071201;28;20328;-46
2022/08/14 00:08:32;;;;;;;0.77;0.77;;;25.00;98.90;;;;;;5069641;28;20281;-47
2022/08/14 00:11:00;;;;;;;1.00;1.00;;;25.00;99.00;;;;;;5068058;28;20189;-50
2022/08/14 00:13:28;;;;;;;1.02;1.02;;;25.00;99.10;;;;;;5069231;28;20277;-46
2022/08/14 00:15:57;;;;;;;1.30;1.10;;;25.10;99.20;;;;;;5071321;28;20198;-45
2022/08/14 00:18:26;;;;;;;2.28;1.00;;;25.00;99.20;;;;;;5069828;28;20246;-45
2022/08/14 00:20:54;;;;;;;0.82;0.82;;;25.10;99.30;;;;;;5070158;28;20284;-42
2022/08/14 00:23:21;;;;;;;0.82;0.82;;;25.10;99.30;;;;;;5070318;28;20202;-40
2022/08/14 00:25:51;;;;;;;1.20;1.10;;;25.00;99.30;;;;;;5071247;28;20221;-40
2022/08/14 00:28:25;;;;;;;1.23;1.13;;;25.00;99.30;;;;;;5068274;28;20195;-41
2022/08/14 00:30:55;;;;;;;1.40;1.10;;;25.00;99.40;;;;;;5068335;28;20667;-45
2022/08/14 00:33:22;;;;;;;1.38;1.00;;;25.00;99.40;;;;;;5070312;28;20197;-39
2022/08/14 00:35:49;;;;;;;1.08;0.90;;;25.00;99.50;;;;;;5068803;28;20587;-40
2022/08/14 00:38:17;;;;;;;0.90;0.90;;;25.00;99.50;;;;;;5070984;28;20300;-41
2022/08/14 00:40:44;;;;;;;2.83;1.10;;;24.90;99.60;;;;;;5068774;28;20203;-46
2022/08/14 00:43:12;;;;;;;0.70;0.70;;;24.90;99.60;;;;;;5069762;28;20217;-42
2022/08/14 00:45:40;;;;;;;0.90;0.90;;;24.80;99.70;;;;;;5066272;28;20775;-41
2022/08/14 00:48:08;;;;;;;0.80;0.80;;;24.80;99.80;;;;;;5071047;28;20276;-44
2022/08/14 00:50:36;;;;;;;0.85;0.85;;;24.70;99.90;;;;;;5068797;28;20240;-41
2022/08/14 00:53:04;;;;;;;0.88;0.85;;;24.70;99.90;;;;;;5069359;28;20514;-48
2022/08/14 00:55:31;;;;;;;1.38;1.30;;;24.70;99.90;;;;;;5065821;28;20194;-46
2022/08/14 01:00:49;;;;;;;2.72;0.90;;;24.70;99.90;;;;;;5068321;28;20521;-49
2022/08/14 01:03:19;;;;;;;1.45;0.82;;;24.70;99.90;;;;;;5069102;28;20609;-49
2022/08/14 01:05:48;;;;;;;0.70;0.70;;;24.70;99.90;;;;;;5068855;28;20338;-46
2022/08/14 01:08:18;;;;;;;1.95;1.02;;;24.60;99.90;;;;;;5071094;28;20579;-46
2022/08/14 01:10:52;;;;;;;1.40;1.10;;;24.60;99.90;;;;;;5067305;28;20215;-48
2022/08/14 01:13:22;;;;;;;0.90;0.90;;;24.60;99.90;;;;;;5065468;28;20284;-49
2022/08/14 01:15:52;;;;;;;1.08;1.00;;;24.60;99.90;;;;;;5067497;28;20653;-49
2022/08/14 01:21:07;;;;;;;1.00;0.90;;;24.50;99.90;;;;;;5070668;28;20699;-47
2022/08/14 01:23:38;;;;;;;1.00;1.00;;;24.50;99.90;;;;;;5068303;28;20623;-49
2022/08/14 01:26:06;;;;;;;2.25;1.00;;;24.50;99.90;;;;;;5066822;28;20758;-49
2022/08/14 01:28:36;;;;;;;0.90;0.90;;;24.50;99.90;;;;;;5069381;28;20245;-45
2022/08/14 01:31:11;;;;;;;1.00;1.00;;;24.50;99.90;;;;;;5069423;28;20205;-46
2022/08/14 01:33:43;;;;;;;0.95;0.95;;;24.50;99.90;;;;;;5067420;28;20185;-49
2022/08/14 01:36:11;;;;;;;1.00;1.00;;;24.50;99.90;;;;;;5068119;28;20185;-41
2022/08/14 01:38:44;;;;;;;0.82;0.82;;;24.50;99.90;;;;;;5066592;28;20185;-40
2022/08/14 01:41:13;;;;;;;1.50;0.98;;;24.50;99.90;;;;;;5065328;28;20197;-40
2022/08/14 01:43:47;;;;;;;1.55;0.93;;;24.50;99.90;;;;;;5062180;28;20251;-42
2022/08/14 01:46:15;;;;;;;0.85;0.85;;;24.40;99.90;;;;;;5068034;28;20225;-50
2022/08/14 01:48:44;;;;;;;1.40;1.27;;;24.40;99.90;;;;;;5068135;28;20201;-42
2022/08/14 01:51:12;;;;;;;1.10;1.10;;;24.30;99.90;;;;;;5067040;28;20185;-41
2022/08/14 01:53:43;;;;;;;1.00;1.00;;;24.40;99.90;;;;;;5067974;28;20600;-42
2022/08/14 01:56:10;;;;;;;1.20;1.10;;;24.40;99.90;;;;;;5068455;28;20645;-42
2022/08/14 01:58:37;;;;;;;2.42;0.90;;;24.40;99.90;;;;;;5064119;28;20280;-43
2022/08/14 02:01:05;;;;;;;0.90;0.90;;;24.40;99.90;;;;;;5064222;28;20988;-44
2022/08/14 02:03:39;;;;;;;1.25;1.08;;;24.40;99.90;;;;;;5065858;28;20212;-43
2022/08/14 02:06:07;;;;;;;0.90;0.90;;;24.40;99.90;;;;;;5066341;28;20205;-44
2022/08/14 02:08:36;;;;;;;0.90;0.90;;;24.30;99.90;;;;;;5067501;28;20223;-43
2022/08/14 02:11:22;;;;;;;3.38;1.20;;;24.30;99.90;;;;;;5067141;28;20588;-49
2022/08/14 02:13:52;;;;;;;1.02;1.00;;;24.30;99.90;;;;;;5066143;28;20200;-50
2022/08/14 02:16:24;;;;;;;1.25;1.17;;;24.30;99.90;;;;;;5068193;28;20633;-49
2022/08/14 02:18:52;;;;;;;1.00;1.00;;;24.30;99.90;;;;;;5066492;28;20723;-45
2022/08/14 02:21:19;;;;;;;2.58;0.93;;;24.30;99.90;;;;;;5068191;28;20200;-46
2022/08/14 02:23:49;;;;;;;1.50;1.40;;;24.30;99.90;;;;;;5067978;28;20189;-41
2022/08/14 02:26:20;;;;;;;2.10;1.17;;;24.30;99.90;;;;;;5068874;28;20720;-43
2022/08/14 02:28:49;;;;;;;1.10;1.10;;;24.30;99.90;;;;;;5066222;28;20615;-45
2022/08/14 02:31:16;;;;;;;1.02;1.02;;;24.30;99.90;;;;;;5068853;28;20193;-49
2022/08/14 02:33:43;;;;;;;3.17;1.00;;;24.30;99.90;;;;;;5067036;28;20223;-42
2022/08/14 02:36:12;;;;;;;1.13;1.10;;;24.20;99.90;;;;;;5065527;28;20724;-45
2022/08/14 02:38:40;;;;;;;1.13;1.02;;;24.20;99.90;;;;;;5070519;28;20196;-44
2022/08/14 02:41:10;;;;;;;1.00;1.00;;;24.20;99.90;;;;;;5067585;28;20272;-42
2022/08/14 02:43:39;;;;;;;1.02;1.00;;;24.20;99.90;;;;;;5070827;28;20612;-46
2022/08/14 02:46:09;;;;;;;1.10;1.10;;;24.10;99.90;;;;;;5066481;28;20288;-43
2022/08/14 02:48:38;;;;;;;1.75;1.23;;;24.10;99.90;;;;;;5069857;28;20204;-44
2022/08/14 02:51:08;;;;;;;1.13;1.02;;;24.00;99.90;;;;;;5069655;28;20652;-48
2022/08/14 02:53:35;;;;;;;0.90;0.88;;;24.00;99.90;;;;;;5064489;28;20216;-48
2022/08/14 02:56:03;;;;;;;3.63;1.10;;;24.10;99.90;;;;;;5067296;28;20277;-47
2022/08/14 02:58:31;;;;;;;0.80;0.80;;;24.00;99.90;;;;;;5068243;28;20200;-47
2022/08/14 03:01:00;;;;;;;0.80;0.80;;;24.10;99.90;;;;;;5062292;28;20205;-47
2022/08/14 03:03:27;;;;;;;1.10;1.10;;;24.10;99.90;;;;;;5067014;28;20276;-44
2022/08/14 03:05:54;;;;;;;1.27;1.17;;;24.10;99.90;;;;;;5063004;28;20311;-48
2022/08/14 03:08:22;;;;;;;1.23;1.10;;;24.20;99.90;;;;;;5069128;28;20201;-48
2022/08/14 03:10:49;;;;;;;1.10;1.00;;;24.20;99.90;;;;;;5064611;28;20363;-48
2022/08/14 03:13:16;;;;;;;1.08;0.82;;;24.20;99.90;;;;;;5066350;28;20315;-44
2022/08/14 03:15:46;;;;;;;0.98;0.98;;;24.10;99.90;;;;;;5063772;28;20203;-47
2022/08/14 03:18:14;;;;;;;1.05;1.05;;;24.20;99.90;;;;;;5064877;28;20778;-46
2022/08/14 03:20:42;;;;;;;1.52;1.00;;;24.10;99.90;;;;;;5064631;28;20283;-46
2022/08/14 03:23:09;;;;;;;2.92;1.00;;;24.10;99.90;;;;;;5066879;28;20281;-47
2022/08/14 03:25:36;;;;;;;1.20;1.00;;;24.00;99.90;;;;;;5069025;28;20217;-47
2022/08/14 03:28:05;;;;;;;1.75;1.30;;;24.10;99.90;;;;;;5066151;28;20197;-44
2022/08/14 03:30:33;;;;;;;0.82;0.82;;;24.00;99.90;;;;;;5066532;28;20510;-44
2022/08/14 03:33:00;;;;;;;1.38;1.20;;;24.00;99.90;;;;;;5065390;28;20711;-45
2022/08/14 03:35:29;;;;;;;1.27;1.08;;;24.00;99.90;;;;;;5070023;28;20254;-48
2022/08/14 03:38:04;;;;;;;0.95;0.95;;;24.00;99.90;;;;;;5064793;28;20186;-45
2022/08/14 03:40:31;;;;;;;1.10;1.10;;;24.00;99.90;;;;;;5062286;28;20199;-46
2022/08/14 03:42:58;;;;;;;1.00;1.00;;;24.00;99.90;;;;;;5064371;28;20222;-46
2022/08/14 03:45:25;;;;;;;1.05;1.05;;;24.00;99.90;;;;;;5064377;28;20278;-46
2022/08/14 03:47:52;;;;;;;1.25;1.20;;;24.00;99.90;;;;;;5065585;28;20292;-47
2022/08/14 03:50:18;;;;;;;0.90;0.90;;;24.00;99.90;;;;;;5062625;28;20217;-41
2022/08/14 03:52:47;;;;;;;1.20;1.10;;;23.90;99.90;;;;;;5062623;28;20275;-44
2022/08/14 03:55:14;;;;;;;1.00;1.00;;;23.90;99.90;;;;;;5062074;28;20212;-40
2022/08/14 03:57:42;;;;;;;3.03;1.10;;;23.90;99.90;;;;;;5064180;28;20220;-45
2022/08/14 04:00:12;;;;;;;1.02;1.02;;;23.90;99.90;;;;;;5062899;28;20670;-39
2022/08/14 04:02:40;;;;;;;1.15;1.08;;;23.90;99.90;;;;;;5063598;28;20713;-37
2022/08/14 04:05:09;;;;;;;1.20;1.17;;;23.90;99.90;;;;;;5062910;28;20649;-44
2022/08/14 04:07:37;;;;;;;1.13;1.08;;;23.90;99.90;;;;;;5062196;28;20214;-38
2022/08/14 04:10:07;;;;;;;1.20;0.95;;;23.90;99.90;;;;;;5060782;28;20762;-42
2022/08/14 04:12:35;;;;;;;1.23;1.20;;;23.90;99.90;;;;;;5063734;28;20194;-37
2022/08/14 04:15:02;;;;;;;1.45;1.35;;;23.80;99.90;;;;;;5064951;28;20190;-39
2022/08/14 04:17:29;;;;;;;1.35;1.25;;;23.90;99.90;;;;;;5068397;28;20235;-41
2022/08/14 04:19:58;;;;;;;1.40;1.30;;;23.90;99.90;;;;;;5063263;28;20225;-42
2022/08/14 04:22:25;;;;;;;1.55;1.10;;;23.90;99.90;;;;;;5065734;28;20538;-42
2022/08/14 04:24:52;;;;;;;1.50;1.40;;;23.90;99.90;;;;;;5070624;28;20284;-44
2022/08/14 04:27:22;;;;;;;1.55;1.45;;;23.90;99.90;;;;;;5073344;28;20220;-40
2022/08/14 04:29:49;;;;;;;1.40;1.30;;;23.90;99.90;;;;;;5068595;28;20185;-43
2022/08/14 04:32:18;;;;;;;1.40;1.30;;;23.90;99.90;;;;;;5073247;28;20242;-42
2022/08/14 04:34:45;;;;;;;1.63;1.45;;;23.90;99.90;;;;;;5070188;28;20271;-39
2022/08/14 04:45:39;;;;;;;1.77;1.55;;;24.00;99.90;;;;;;5067477;28;20193;-39
2022/08/14 04:48:11;;;;;;;1.75;1.65;;;24.00;99.90;;;;;;5068410;28;20232;-41
2022/08/14 04:50:39;;;;;;;1.40;1.30;;;24.00;99.90;;;;;;5062934;28;20200;-41
2022/08/14 04:53:06;;;;;;;1.65;1.38;;;24.00;99.90;;;;;;5069900;28;20186;-42
2022/08/14 04:55:33;;;;;;;1.42;1.40;;;24.00;99.90;;;;;;5064225;28;20666;-44
2022/08/14 04:58:04;;;;;;;4.70;1.70;;;24.10;99.90;;;;;;5066206;28;20194;-41
2022/08/14 05:00:31;;;;;;;1.40;1.30;;;24.10;99.90;;;;;;5066423;28;20194;-41
2022/08/14 05:03:01;;;;;;;1.63;1.50;;;24.10;99.90;;;;;;5068545;28;20675;-40
2022/08/14 05:05:29;;;;;;;1.67;1.58;;;24.10;99.90;;;;;;5066768;28;20194;-42
2022/08/14 05:07:56;;;;;;;1.80;1.50;;;24.20;99.90;;;;;;5071836;28;20277;-38
2022/08/14 05:10:24;;;;;;;2.60;1.58;;;24.20;99.90;;;;;;5065498;28;20582;-41
2022/08/14 05:12:52;;;;;;;2.67;1.75;;;24.20;99.90;;;;;;5069236;28;20776;-47
2022/08/14 05:15:21;;;;;;;2.28;1.83;;;24.30;99.90;;;;;;5067503;28;20283;-41
2022/08/14 05:17:49;;;;;;;1.90;1.80;;;24.30;99.90;;;;;;5070828;28;20189;-44
2022/08/14 05:20:16;;;;;;;3.72;1.70;;;24.40;99.90;;;;;;5066120;28;20284;-43
2022/08/14 05:22:44;;;;;;;3.88;2.17;;;24.40;99.90;;;;;;5072635;28;20243;-43
2022/08/14 05:25:12;;;;;;;4.07;2.45;;;24.50;99.90;;;;;;5064621;28;20202;-42
2022/08/14 05:27:39;;;;;;;4.30;2.30;;;24.50;99.90;;;;;;5067375;28;20209;-41
2022/08/14 05:30:07;;;;;;;2.10;1.83;;;24.50;99.90;;;;;;5068310;28;20197;-41
2022/08/14 05:32:37;;;;;;;2.63;1.95;;;24.50;99.90;;;;;;5063593;28;20304;-40
2022/08/14 05:35:05;;;;;;;2.40;1.73;;;24.50;99.90;;;;;;5067155;28;20208;-40
2022/08/14 05:37:32;;;;;;;2.35;1.90;;;24.50;99.90;;;;;;5070048;28;20193;-41
2022/08/14 05:40:00;;;;;;;2.47;1.90;;;24.50;99.90;;;;;;5068694;28;20291;-45
2022/08/14 05:42:28;;;;;;;2.20;2.00;;;24.50;99.90;;;;;;5070522;28;20197;-43
2022/08/14 05:44:55;;;;;;;1.98;1.88;;;24.50;99.90;;;;;;5067325;28;20688;-47
2022/08/14 05:47:22;;;;;;;1.90;1.77;;;24.60;99.90;;;;;;5068738;28;20287;-46
2022/08/14 05:49:51;;;;;;;2.15;1.88;;;24.60;99.90;;;;;;5069736;28;20193;-46
2022/08/14 05:52:18;;;;;;;1.70;1.60;;;24.60;99.90;;;;;;5063687;28;20200;-46
2022/08/14 05:54:45;;;;;;;3.13;1.45;;;24.70;99.90;;;;;;5071133;28;20616;-45
2022/08/14 05:57:12;;;;;;;5.05;2.70;;;24.70;99.90;;;;;;5067308;28;20193;-45
2022/08/14 05:59:40;;;;;;;5.00;2.90;;;24.70;99.90;;;;;;5070058;28;20197;-45
2022/08/14 06:02:07;;;;;;;2.53;2.33;;;24.70;99.90;;;;;;5066299;28;20206;-48
2022/08/14 06:04:34;;;;;;;2.42;2.22;;;24.70;99.90;;;;;;5069675;28;20197;-47
2022/08/14 06:07:03;;;;;;;1.88;1.77;;;24.80;99.90;;;;;;5069699;28;20213;-45
2022/08/14 06:09:30;;;;;;;2.03;1.92;;;24.80;99.90;;;;;;5075577;28;20278;-42
2022/08/14 06:11:57;;;;;;;1.60;1.50;;;24.80;99.90;;;;;;5071856;28;20206;-48
2022/08/14 06:14:24;;;;;;;1.75;1.63;;;24.80;99.90;;;;;;5069736;28;20220;-49
2022/08/14 06:16:51;;;;;;;1.73;1.63;;;24.80;99.90;;;;;;5068607;28;20292;-46
2022/08/14 06:19:18;;;;;;;1.48;1.38;;;24.90;99.90;;;;;;5066192;28;20361;-48
2022/08/14 06:21:45;;;;;;;1.50;1.50;;;24.90;99.90;;;;;;5069213;28;20205;-42
2022/08/14 06:24:13;;;;;;;2.33;1.10;;;25.00;99.90;;;;;;5070732;28;20191;-46
2022/08/14 06:26:40;;;;;;;1.40;1.30;;;25.00;99.90;;;;;;5066577;28;20205;-45
2022/08/14 06:29:09;;;;;;;2.33;1.45;;;25.00;99.90;;;;;;5066882;28;20664;-47
2022/08/14 06:31:36;;;;;;;1.55;1.45;;;25.00;99.90;;;;;;5065644;28;20201;-47
2022/08/14 06:34:03;;;;;;;2.80;1.08;;;25.00;99.90;;;;;;5064265;28;20708;-46
2022/08/14 06:36:30;;;;;;;1.42;1.33;;;25.10;99.90;;;;;;5063779;28;20570;-46
2022/08/14 06:38:57;;;;;;;1.60;1.50;;;25.10;99.90;;;;;;5067288;28;20255;-47
2022/08/14 06:41:26;;;;;;;1.58;1.30;;;25.20;99.90;;;;;;5062351;28;20227;-48
2022/08/14 06:43:54;;;;;;;1.17;1.17;;;25.20;99.90;;;;;;5067834;28;20192;-47
2022/08/14 06:46:21;;;;;;;1.92;1.70;;;25.20;99.90;;;;;;5063920;28;20201;-47
2022/08/14 06:48:49;;;;;;;1.15;1.05;;;25.30;99.90;;;;;;5067341;28;20279;-47
2022/08/14 06:51:16;;;;;;;2.50;1.25;;;25.30;99.90;;;;;;5066725;28;20193;-46
2022/08/14 06:53:43;;;;;;;1.52;1.42;;;25.30;99.90;;;;;;5067563;28;20702;-46
2022/08/14 06:56:10;;;;;;;1.33;1.27;;;25.40;99.90;;;;;;5061982;28;20194;-49
2022/08/14 06:58:38;;;;;;;1.20;1.10;;;25.40;99.90;;;;;;5065424;28;20276;-42
2022/08/14 07:06:34;;;;;;;3.10;1.30;;;25.50;99.90;;;;;;5064746;28;20338;-46
2022/08/14 07:09:03;;;;;;;1.30;1.20;;;25.60;99.90;;;;;;5064484;28;20254;-41
2022/08/14 07:11:30;;;;;;;1.38;1.10;;;25.60;99.90;;;;;;5067802;28;20221;-42
2022/08/14 07:13:59;;;;;;;3.50;1.60;;;25.60;99.90;;;;;;5065818;28;20272;-40
2022/08/14 07:16:26;;;;;;;1.30;1.20;;;25.70;99.90;;;;;;5061407;28;20599;-45
2022/08/14 07:18:53;;;;;;;1.30;1.20;;;25.70;99.90;;;;;;5063125;28;20328;-45
2022/08/14 07:21:20;;;;;;;1.20;1.20;;;25.70;99.90;;;;;;5065949;28;20193;-46
2022/08/14 07:23:47;;;;;;;1.20;1.20;;;25.70;99.90;;;;;;5066714;28;20663;-45
2022/08/14 07:26:14;;;;;;;1.30;1.30;;;25.80;99.90;;;;;;5065913;28;20209;-43
2022/08/14 07:28:41;;;;;;;1.23;1.10;;;25.80;99.90;;;;;;5068074;28;20209;-46
2022/08/14 07:31:12;;;;;;;1.00;1.00;;;25.90;99.80;;;;;;5066552;28;20560;-41
2022/08/14 07:33:41;;;;;;;1.10;1.10;;;25.90;99.70;;;;;;5065390;28;20204;-39
2022/08/14 07:36:10;;;;;;;1.23;1.20;;;25.90;99.60;;;;;;5063524;28;20209;-38
2022/08/14 07:38:39;;;;;;;1.77;1.30;;;26.00;99.50;;;;;;5069624;28;20197;-41
2022/08/14 07:41:08;;;;;;;1.10;1.10;;;26.00;99.40;;;;;;5068365;28;20668;-40
2022/08/14 07:43:35;;;;;;;1.55;1.33;;;26.00;99.30;;;;;;5066506;28;20204;-38
2022/08/14 07:46:02;;;;;;;1.00;1.00;;;26.10;99.20;;;;;;5063581;28;20193;-41
2022/08/14 07:48:30;;;;;;;1.02;1.02;;;26.10;99.10;;;;;;5065430;28;20599;-38
2022/08/14 07:50:58;;;;;;;1.40;1.30;;;26.20;99.00;;;;;;5068213;28;20359;-40
2022/08/14 07:53:25;;;;;;;1.15;1.15;;;26.20;98.90;;;;;;5066521;28;20228;-41
2022/08/14 07:55:52;;;;;;;1.25;1.15;;;26.30;98.70;;;;;;5064952;28;20284;-42
2022/08/14 07:58:19;;;;;;;1.27;1.17;;;26.30;98.60;;;;;;5069008;28;20192;-42
2022/08/14 08:00:46;;;;;;;1.10;1.10;;;26.40;98.50;;;;;;5069303;28;20715;-41
2022/08/14 08:03:14;;;;;;;1.10;1.10;;;26.40;98.40;;;;;;5069308;28;20668;-41
2022/08/14 08:05:44;;;;;;;1.30;1.20;;;26.50;98.50;;;;;;5066283;28;20193;-43
2022/08/14 08:08:11;;;;;;;1.08;1.08;;;26.60;98.00;;;;;;5070952;28;20212;-43
2022/08/14 08:10:40;;;;;;;1.10;1.10;;;26.60;97.90;;;;;;5066919;28;20221;-41
2022/08/14 08:13:11;;;;;;;1.10;1.10;;;26.70;97.70;;;;;;5062998;28;20242;-41
2022/08/14 08:15:40;;;;;;;2.05;1.00;;;26.70;97.50;;;;;;5066488;28;20534;-41
2022/08/14 08:18:09;;;;;;;0.90;0.90;;;26.80;97.40;;;;;;5068216;28;20198;-45
2022/08/14 08:20:38;;;;;;;0.80;0.80;;;26.90;97.30;;;;;;5066721;28;20684;-46
2022/08/14 08:23:09;;;;;;;1.00;1.00;;;26.90;97.30;;;;;;5070398;28;20197;-46
2022/08/14 08:25:37;;;;;;;3.80;1.20;;;27.00;96.80;;;;;;5067510;28;20318;-47
2022/08/14 08:28:08;;;;;;;1.17;1.17;;;27.10;96.60;;;;;;5067214;28;20209;-40
2022/08/14 08:30:37;;;;;;;0.93;0.93;;;27.10;96.30;;;;;;5067606;28;20227;-44
2022/08/14 08:33:06;;;;;;;1.35;1.25;;;27.10;96.20;;;;;;5063943;28;20197;-43
2022/08/14 08:35:35;;;;;;;1.02;1.02;;;27.10;96.00;;;;;;5065258;28;20267;-47
2022/08/14 08:38:04;;;;;;;1.05;1.05;;;27.20;95.90;;;;;;5063902;28;20281;-54
2022/08/14 08:40:35;;;;;;;1.05;1.05;;;27.20;95.70;;;;;;5067973;28;20280;-46
2022/08/14 08:43:04;;;;;;;1.00;1.00;;;27.30;95.50;;;;;;5067151;28;20190;-48
2022/08/14 08:45:31;;;;;;;0.90;0.90;;;27.40;95.40;;;;;;5068044;28;20200;-49
2022/08/14 08:47:59;;;;;;;1.05;1.05;;;27.40;95.20;;;;;;5069901;28;20233;-53
2022/08/14 08:50:29;;;;;;;1.00;1.00;;;27.50;95.00;;;;;;5066576;28;20656;-50
2022/08/14 08:52:58;;;;;;;1.40;1.30;;;27.60;95.00;;;;;;5067731;28;20202;-49
2022/08/14 08:55:31;;;;;;;1.13;1.13;;;27.60;95.10;;;;;;5068014;28;20581;-49
2022/08/14 08:58:03;;;;;;;1.23;1.20;;;27.60;94.60;;;;;;5071773;28;20181;-51
2022/08/14 09:00:32;;;;;;;1.10;1.10;;;27.70;94.50;;;;;;5067046;28;20189;-50
2022/08/14 09:03:04;;;;;;;1.10;1.00;;;27.70;94.30;;;;;;5062465;28;20646;-52
2022/08/14 09:05:33;;;;;;;1.10;1.10;;;27.80;94.20;;;;;;5051692;28;20259;-52
2022/08/14 09:08:10;;;;;;;1.23;1.17;;;27.80;94.00;;;;;;5069515;28;20205;-51
2022/08/14 09:10:37;;;;;;;1.55;1.17;;;27.90;93.90;;;;;;5068439;28;20556;-49
2022/08/14 09:13:06;;;;;;;1.45;1.10;;;27.90;93.60;;;;;;5064213;28;20193;-52
2022/08/14 09:15:33;;;;;;;0.90;0.90;;;28.00;93.50;;;;;;5056483;28;20247;-53
2022/08/14 09:18:01;;;;;;;1.55;1.27;;;28.00;93.30;;;;;;5065571;28;20186;-53
2022/08/14 09:20:28;;;;;;;1.40;1.40;;;28.00;93.10;;;;;;5068755;28;20313;-53
2022/08/14 09:22:55;;;;;;;1.00;1.00;;;28.10;93.00;;;;;;5066200;28;20231;-53
2022/08/14 09:25:22;;;;;;;1.83;1.20;;;28.20;92.80;;;;;;5062584;28;20284;-50
2022/08/14 09:27:49;;;;;;;2.90;1.23;;;28.20;92.70;;;;;;5063141;28;20286;-51
2022/08/14 09:30:18;;;;;;;1.20;1.20;;;28.20;92.50;;;;;;5061456;28;20747;-50
2022/08/14 09:32:56;;;;;;;1.23;1.13;;;28.30;92.40;;;;;;5063995;28;20284;-52
2022/08/14 09:35:30;;;;;;;2.00;1.30;;;28.30;92.30;;;;;;5063013;28;20230;-50
2022/08/14 09:38:06;;;;;;;1.40;1.30;;;28.30;92.20;;;;;;5062577;28;20189;-51
2022/08/14 09:40:46;;;;;;;1.10;1.10;;;28.30;92.00;;;;;;5062733;28;20192;-54
2022/08/14 09:43:28;;;;;;;1.10;1.10;;;28.40;92.00;;;;;;5061024;28;20282;-52
2022/08/14 09:45:58;;;;;;;1.27;1.13;;;28.50;91.80;;;;;;5064849;28;20197;-49
2022/08/14 09:48:27;;;;;;;3.53;1.80;;;28.50;91.60;;;;;;5060809;28;20209;-50
2022/08/14 09:50:55;;;;;;;1.30;1.25;;;28.50;91.40;;;;;;5066963;28;20198;-51
2022/08/14 09:53:37;;;;;;;1.20;1.20;;;28.50;91.00;;;;;;5064139;28;20205;-51
2022/08/14 09:56:05;;;;;;;1.45;1.38;;;28.50;90.90;;;;;;5062005;28;20197;-52
2022/08/14 09:58:38;;;;;;;1.20;1.20;;;28.60;90.70;;;;;;5064323;28;20565;-51
2022/08/14 10:01:12;;;;;;;1.63;1.50;;;28.60;90.60;;;;;;5062035;28;20193;-49
2022/08/14 10:03:48;;;;;;;1.50;1.50;;;28.60;90.30;;;;;;5062790;28;20621;-50
2022/08/14 10:06:18;;;;;;;1.52;1.50;;;28.60;90.40;;;;;;5065331;28;20291;-50
2022/08/14 10:08:49;;;;;;;2.53;1.40;;;28.60;90.00;;;;;;5059974;28;20577;-50
2022/08/14 10:11:19;;;;;;;1.30;1.30;;;28.60;89.90;;;;;;5066129;28;20307;-48
2022/08/14 10:13:48;;;;;;;0.93;0.93;;;28.70;89.70;;;;;;5065218;28;20704;-52
2022/08/14 10:16:16;;;;;;;1.20;1.20;;;28.80;89.60;;;;;;5059079;28;20260;-52
2022/08/14 10:18:43;;;;;;;1.40;1.40;;;28.80;89.10;;;;;;5062268;28;20225;-51
2022/08/14 10:21:17;;;;;;;1.10;1.10;;;28.90;88.70;;;;;;5062034;28;20272;-51
2022/08/14 10:23:48;;;;;;;1.27;1.20;;;28.90;88.60;;;;;;5064375;28;20528;-48
2022/08/14 10:26:18;;;;;;;1.50;1.40;;;29.00;88.30;;;;;;5060896;28;20200;-48
2022/08/14 10:28:47;;;;;;;1.30;1.30;;;29.10;88.00;;;;;;5063583;28;20244;-53
2022/08/14 10:31:22;;;;;;;1.48;1.23;;;29.10;87.80;;;;;;5064587;28;20580;-52
2022/08/14 10:34:05;;;;;;;1.40;1.30;;;29.10;87.70;;;;;;5061248;28;20189;-53
2022/08/14 10:36:35;;;;;;;1.10;1.10;;;29.20;87.70;;;;;;5064467;28;20302;-50
2022/08/14 10:39:05;;;;;;;2.88;1.20;;;29.20;87.60;;;;;;5062712;28;20201;-52
2022/08/14 10:41:39;;;;;;;1.40;1.33;;;29.20;87.60;;;;;;5064049;28;20208;-48
2022/08/14 10:44:09;;;;;;;1.40;1.30;;;29.30;87.60;;;;;;5062897;28;20185;-49
2022/08/14 10:46:43;;;;;;;1.40;1.30;;;29.30;87.60;;;;;;5062037;28;20197;-52
2022/08/14 10:49:18;;;;;;;1.45;1.30;;;29.30;87.60;;;;;;5060433;28;20218;-53
2022/08/14 10:51:58;;;;;;;2.25;1.30;;;29.30;87.60;;;;;;5059063;28;20511;-47
2022/08/14 10:54:31;;;;;;;1.52;1.10;;;29.30;87.60;;;;;;5064412;28;20223;-55
2022/08/14 10:56:59;;;;;;;1.48;1.33;;;29.30;87.50;;;;;;5064895;28;20197;-49
2022/08/14 10:59:26;;;;;;;1.90;1.40;;;29.40;87.30;;;;;;5064223;28;20190;-52
2022/08/14 11:01:58;;;;;;;1.42;1.33;;;29.40;87.90;;;;;;5063999;28;20683;-49
2022/08/14 11:04:27;;;;;;;1.38;1.38;;;29.40;87.10;;;;;;5061859;28;20193;-52
2022/08/14 11:06:54;;;;;;;2.25;2.00;;;29.50;87.20;;;;;;5064333;28;20644;-46
2022/08/14 11:09:21;;;;;;;1.90;1.80;;;29.50;87.10;;;;;;5059472;28;20216;-48
2022/08/14 11:11:54;;;;;;;2.55;2.35;;;29.50;86.90;;;;;;5063350;28;20676;-49
2022/08/14 11:14:25;;;;;;;1.98;1.88;;;29.40;86.90;;;;;;5064389;28;20200;-51
2022/08/14 11:16:54;;;;;;;1.98;1.88;;;29.40;87.70;;;;;;5060192;28;20201;-47
2022/08/14 11:19:23;;;;;;;2.00;1.90;;;29.40;86.80;;;;;;5057417;28;20237;-51
2022/08/14 11:21:51;;;;;;;2.88;2.22;;;29.30;86.80;;;;;;5062594;28;20201;-49
2022/08/14 11:24:21;;;;;;;3.20;1.95;;;29.40;87.10;;;;;;5061841;28;20660;-50
2022/08/14 11:26:50;;;;;;;1.95;1.80;;;29.30;87.10;;;;;;5061800;28;20644;-44
2022/08/14 11:29:21;;;;;;;5.05;1.92;;;29.30;87.10;;;;;;5064526;28;20576;-44
2022/08/14 11:31:48;;;;;;;4.13;2.03;;;29.30;87.20;;;;;;5060977;28;20251;-50
2022/08/14 11:34:17;;;;;;;1.92;1.80;;;29.20;87.10;;;;;;5059333;28;20201;-52
2022/08/14 11:36:44;;;;;;;2.35;1.90;;;29.30;87.20;;;;;;5067365;28;20188;-49
2022/08/14 11:39:19;;;;;;;2.10;1.90;;;29.20;87.00;;;;;;5066057;28;20243;-52
2022/08/14 11:41:46;;;;;;;2.10;1.90;;;29.30;87.20;;;;;;5060009;28;20188;-51
2022/08/14 11:44:15;;;;;;;5.13;1.90;;;29.30;87.30;;;;;;5064612;28;20204;-51
2022/08/14 11:46:42;;;;;;;6.10;1.70;;;29.20;87.40;;;;;;5060490;28;20197;-52
2022/08/14 11:49:09;;;;;;;3.15;1.90;;;29.20;87.70;;;;;;5061643;28;20217;-50
2022/08/14 11:51:38;;;;;;;2.28;2.08;;;29.20;88.10;;;;;;5058382;28;20509;-50
2022/08/14 11:54:06;;;;;;;2.22;2.00;;;29.10;88.40;;;;;;5062616;28;20274;-52
2022/08/14 11:56:38;;;;;;;3.97;2.05;;;29.10;88.50;;;;;;5061602;28;20197;-53
2022/08/14 11:59:08;;;;;;;3.28;1.98;;;29.10;88.80;;;;;;5062418;28;20250;-50
2022/08/14 12:01:35;;;;;;;14.00;2.95;;;29.10;89.30;;;;;;5058825;28;20228;-47
2022/08/14 12:04:10;;;;;;;3.90;2.03;;;29.10;89.50;;;;;;5062373;28;20197;-50
2022/08/14 12:06:49;;;;;;;1.80;1.70;;;29.10;89.70;;;;;;5057979;28;20198;-47
2022/08/14 12:09:28;;;;;;;2.42;1.90;;;29.10;89.90;;;;;;5065344;28;20254;-50
2022/08/14 12:11:56;;;;;;;2.78;1.70;;;29.20;90.00;;;;;;5062104;28;20185;-50
2022/08/14 12:14:23;;;;;;;3.05;1.90;;;29.20;90.00;;;;;;5060785;28;20185;-52
2022/08/14 12:16:59;;;;;;;2.10;1.95;;;29.20;90.10;;;;;;5061929;28;20326;-51
2022/08/14 12:19:27;;;;;;;3.25;2.28;;;29.20;90.10;;;;;;5062053;28;20731;-53
2022/08/14 12:21:55;;;;;;;2.08;1.88;;;29.30;90.20;;;;;;5061834;28;20193;-53
2022/08/14 12:24:29;;;;;;;5.93;2.10;;;29.30;90.10;;;;;;5063994;28;20633;-52
2022/08/14 12:26:56;;;;;;;1.90;1.80;;;29.30;90.10;;;;;;5062864;28;20272;-52
2022/08/14 12:29:23;;;;;;;3.55;2.50;;;29.30;90.10;;;;;;5063992;28;20216;-52
2022/08/14 12:32:06;;;;;;;9.05;2.17;;;29.30;90.10;;;;;;5061114;28;20198;-52
2022/08/14 12:34:35;;;;;;;2.95;2.17;;;29.20;90.10;;;;;;5063380;28;20212;-54
2022/08/14 12:37:06;;;;;;;2.97;2.20;;;29.30;90.20;;;;;;5063034;28;20201;-52
2022/08/14 12:39:33;;;;;;;5.93;1.83;;;29.30;90.20;;;;;;5063043;28;20221;-51
2022/08/14 12:42:05;;;;;;;1.95;1.75;;;29.30;90.30;;;;;;5057740;28;20189;-51
2022/08/14 12:44:34;;;;;;;2.92;1.80;;;29.30;90.30;;;;;;5065497;28;20193;-49
2022/08/14 12:47:06;;;;;;;2.88;1.60;;;29.30;90.40;;;;;;5064782;28;20231;-50
2022/08/14 12:49:34;;;;;;;3.45;2.10;;;29.30;90.50;;;;;;5065948;28;20301;-50
2022/08/14 12:52:02;;;;;;;2.88;2.17;;;29.30;90.50;;;;;;5069732;28;20263;-53
2022/08/14 12:54:31;;;;;;;2.53;1.95;;;29.30;90.60;;;;;;5068656;28;20618;-52
2022/08/14 12:57:07;;;;;;;2.80;2.08;;;29.40;90.60;;;;;;5065053;28;20285;-51
2022/08/14 12:59:35;;;;;;;2.10;1.90;;;29.40;91.00;;;;;;5066206;28;20193;-50
2022/08/14 13:02:02;;;;;;;3.10;2.15;;;29.30;90.50;;;;;;5067126;28;20193;-53
2022/08/14 13:04:30;;;;;;;2.25;1.90;;;29.30;90.60;;;;;;5064866;28;20665;-48
2022/08/14 13:07:07;;;;;;;2.35;1.77;;;29.30;90.70;;;;;;5066771;28;20233;-52
2022/08/14 13:09:36;;;;;;;6.40;2.22;;;29.30;90.80;;;;;;5062897;28;20216;-53
2022/08/14 13:12:05;;;;;;;2.90;2.10;;;29.30;90.80;;;;;;5063549;28;20433;-50
2022/08/14 13:14:33;;;;;;;4.03;2.05;;;29.30;91.00;;;;;;5064475;28;20202;-47
2022/08/14 13:17:01;;;;;;;2.42;2.22;;;29.30;91.00;;;;;;5061692;28;20299;-51